Time;durP1;ratioP1;P1;durP2;ratioP2;P2;SDS_P1;SDS_P2;PMS_P1;PMS_P2;Temp;Humidity;BMP_temperature;BMP_pressure;BME280_temperature;BME280_humidity;BME280_pressure;Samples;Min_cycle;Max_cycle;Signal;HPM_P1;HPM_P2
2021/07/26 00:01:26;;;;;;;13.40;4.40;;;;;;;22.65;49.33;100329.69;3374619;29;20096;-70
2021/07/26 00:03:06;;;;;;;7.63;4.07;;;;;;;22.65;49.55;100329.69;3375503;29;20520;-68
2021/07/26 00:04:47;;;;;;;9.67;3.67;;;;;;;22.66;49.54;100338.66;3375536;29;20148;-71
2021/07/26 00:06:28;;;;;;;14.97;4.60;;;;;;;22.67;49.57;100331.38;3375517;29;20040;-69
2021/07/26 00:08:08;;;;;;;9.53;3.97;;;;;;;22.69;49.99;100337.34;3375607;29;20053;-68
2021/07/26 00:09:49;;;;;;;9.37;4.37;;;;;;;22.69;49.96;100329.19;3375128;29;20409;-69
2021/07/26 00:11:30;;;;;;;10.90;3.57;;;;;;;22.68;49.77;100322.13;3375496;29;20052;-69
2021/07/26 00:13:10;;;;;;;11.20;3.57;;;;;;;22.71;49.88;100335.19;3375768;29;20049;-68
2021/07/26 00:14:51;;;;;;;12.93;4.87;;;;;;;22.70;49.62;100334.38;3375319;29;20136;-69
2021/07/26 00:16:32;;;;;;;6.87;4.20;;;;;;;22.68;49.49;100333.00;3375485;29;20037;-70
2021/07/26 00:18:12;;;;;;;9.70;4.03;;;;;;;22.68;49.56;100333.00;3375382;29;20048;-70
2021/07/26 00:19:53;;;;;;;6.13;3.93;;;;;;;22.70;49.37;100336.28;3375070;29;20076;-70
2021/07/26 00:21:34;;;;;;;5.77;3.33;;;;;;;22.69;49.79;100335.47;3375619;29;20508;-72
2021/07/26 00:23:15;;;;;;;10.40;4.27;;;;;;;22.69;49.56;100334.63;3375603;29;20055;-70
2021/07/26 00:24:57;;;;;;;9.60;4.47;;;;;;;22.70;49.23;100330.84;3375518;29;20049;-70
2021/07/26 00:26:37;;;;;;;13.23;4.10;;;;;;;22.64;48.92;100333.50;3375664;29;20040;-70
2021/07/26 00:28:18;;;;;;;9.30;4.03;;;;;;;22.66;49.08;100341.38;3375488;29;20040;-70
2021/07/26 00:30:00;;;;;;;8.90;3.90;;;;;;;22.63;49.01;100337.28;3375275;29;20040;-69
2021/07/26 00:31:40;;;;;;;7.03;3.70;;;;;;;22.64;48.75;100340.84;3361276;29;20149;-71
2021/07/26 00:35:43;;;;;;;8.88;4.13;;;;;;;22.55;48.46;100334.22;3375413;29;20067;-71
2021/07/26 00:37:26;;;;;;;6.97;4.30;;;;;;;22.53;48.77;100336.38;3375259;29;20068;-70
2021/07/26 00:39:08;;;;;;;8.65;4.38;;;;;;;22.50;48.88;100337.72;3375456;29;20055;-71
2021/07/26 00:40:51;;;;;;;11.20;4.15;;;;;;;22.48;49.18;100337.16;3374940;29;20048;-70
2021/07/26 00:42:32;;;;;;;7.05;4.45;;;;;;;22.52;49.29;100340.19;3376433;29;20076;-72
2021/07/26 00:44:14;;;;;;;8.77;3.90;;;;;;;22.51;49.51;100342.09;3377989;29;20040;-70
2021/07/26 00:45:54;;;;;;;8.18;4.65;;;;;;;22.51;49.31;100344.81;3364036;29;20055;-73
2021/07/26 00:47:35;;;;;;;11.97;4.33;;;;;;;22.51;49.40;100335.81;3375089;29;20072;-71
2021/07/26 00:49:17;;;;;;;11.63;4.60;;;;;;;22.51;49.16;100338.53;3377956;29;20661;-71
2021/07/26 00:50:58;;;;;;;8.93;4.18;;;;;;;22.51;49.22;100333.09;3377383;29;20420;-70
2021/07/26 00:52:38;;;;;;;13.53;4.73;;;;;;;22.53;48.89;100342.63;3377413;29;20040;-71
2021/07/26 00:54:21;;;;;;;13.77;4.40;;;;;;;22.48;48.90;100345.31;3376749;29;20048;-70
2021/07/26 00:56:02;;;;;;;9.38;4.38;;;;;;;22.40;48.26;100354.72;3377609;29;20107;-70
2021/07/26 00:57:48;;;;;;;13.68;5.13;;;;;;;22.32;48.35;100346.25;3377635;29;20504;-71
2021/07/26 00:59:29;;;;;;;12.07;4.30;;;;;;;22.23;48.16;100345.88;3363756;29;20052;-70
2021/07/26 01:01:13;;;;;;;7.82;5.05;;;;;;;22.17;48.06;100344.16;3361145;29;20599;-70
2021/07/26 01:03:04;;;;;;;10.60;3.95;;;;;;;22.13;48.61;100340.31;3362972;29;20053;-71
2021/07/26 01:04:44;;;;;;;10.57;4.20;;;;;;;22.17;49.23;100350.38;3374798;29;20128;-69
2021/07/26 01:06:25;;;;;;;13.73;4.40;;;;;;;22.09;49.04;100333.75;3377430;29;20468;-70
2021/07/26 01:08:06;;;;;;;5.00;4.50;;;;;;;22.12;48.64;100355.78;3363776;29;20136;-70
2021/07/26 01:09:47;;;;;;;8.93;4.47;;;;;;;22.09;49.15;100355.47;3374649;29;20044;-74
2021/07/26 01:11:28;;;;;;;7.47;3.97;;;;;;;22.06;49.23;100348.66;3363921;29;20524;-70
2021/07/26 01:13:09;;;;;;;15.95;4.75;;;;;;;22.04;48.60;100345.34;3366697;29;20104;-70
2021/07/26 01:14:50;;;;;;;7.23;4.33;;;;;;;22.00;48.30;100355.09;3377477;29;20135;-70
2021/07/26 01:16:31;;;;;;;9.70;4.72;;;;;;;21.93;48.25;100352.56;3363862;29;20049;-69
2021/07/26 01:18:25;;;;;;;10.15;4.90;;;;;;;21.90;48.30;100352.28;3375602;29;20108;-70
2021/07/26 01:20:06;;;;;;;7.72;3.60;;;;;;;21.86;48.93;100356.56;3377442;29;20040;-71
2021/07/26 01:21:47;;;;;;;8.02;4.05;;;;;;;21.86;48.99;100351.94;3377251;29;20547;-69
2021/07/26 01:23:30;;;;;;;9.53;4.17;;;;;;;21.88;48.76;100357.94;3377512;29;20041;-70
2021/07/26 01:25:10;;;;;;;7.90;4.03;;;;;;;21.89;48.51;100358.75;3363665;29;20234;-69
2021/07/26 01:26:51;;;;;;;7.37;3.30;;;;;;;21.87;48.57;100356.31;3374525;29;20502;-71
2021/07/26 01:28:37;;;;;;;11.10;4.73;;;;;;;21.87;48.52;100355.50;3377609;29;20184;-72
2021/07/26 01:30:19;;;;;;;8.90;4.05;;;;;;;21.88;48.77;100359.84;3377182;29;20044;-72
2021/07/26 01:31:59;;;;;;;12.23;3.60;;;;;;;21.86;48.46;100354.66;3377087;29;21161;-70
2021/07/26 01:33:41;;;;;;;13.97;4.30;;;;;;;21.84;48.64;100366.81;3377633;29;20421;-70
2021/07/26 01:35:22;;;;;;;;;;;;;;;21.87;48.35;100366.34;3377598;29;20436;-68
2021/07/26 01:37:03;;;;;;;10.32;3.33;;;;;;;21.76;48.40;100366.22;3377567;29;19924;-71
2021/07/26 01:38:45;;;;;;;12.83;4.80;;;;;;;21.69;48.89;100367.47;3377499;29;20049;-71
2021/07/26 01:40:26;;;;;;;8.35;3.80;;;;;;;21.65;48.96;100358.19;3376513;29;20053;-69
2021/07/26 01:42:06;;;;;;;7.73;3.97;;;;;;;21.61;48.88;100374.16;3377038;29;20045;-73
2021/07/26 01:44:06;;;;;;;8.57;3.53;;;;;;;21.57;49.07;100367.56;3377252;29;20055;-70
2021/07/26 01:46:17;;;;;;;9.35;4.25;;;;;;;21.61;49.13;100371.44;3363186;29;20041;-69
2021/07/26 01:48:04;;;;;;;10.30;4.15;;;;;;;21.56;48.85;100372.19;3360239;29;20061;-72
2021/07/26 01:49:50;;;;;;;9.32;4.28;;;;;;;21.57;48.98;100373.00;3361188;29;20057;-70
2021/07/26 01:51:39;;;;;;;5.72;3.55;;;;;;;21.59;49.38;100368.16;3375177;29;20048;-70
2021/07/26 01:53:20;;;;;;;8.77;4.15;;;;;;;21.60;49.33;100367.06;3376251;29;20049;-73
2021/07/26 01:55:01;;;;;;;6.63;3.00;;;;;;;21.68;49.56;100363.91;3377063;29;20067;-73
2021/07/26 01:56:42;;;;;;;8.38;3.40;;;;;;;21.76;49.65;100371.66;3377033;29;20052;-69
2021/07/26 01:58:23;;;;;;;6.50;3.27;;;;;;;21.85;49.48;100368.50;3377065;29;20420;-72
2021/07/26 02:00:05;;;;;;;10.48;3.92;;;;;;;21.91;49.22;100370.19;3363100;29;20540;-70
2021/07/26 02:01:47;;;;;;;8.45;3.92;;;;;;;21.97;49.33;100366.47;3374563;29;20469;-71
2021/07/26 02:03:29;;;;;;;8.07;3.93;;;;;;;22.03;49.32;100365.44;3377188;29;20040;-70
2021/07/26 02:05:11;;;;;;;5.30;3.70;;;;;;;22.06;49.23;100364.94;3377199;29;20044;-70
2021/07/26 02:06:51;;;;;;;5.55;3.10;;;;;;;22.13;49.26;100364.75;3376803;29;20044;-71
2021/07/26 02:08:32;;;;;;;4.53;2.90;;;;;;;22.13;48.96;100373.72;3376972;29;20080;-70
2021/07/26 02:10:13;;;;;;;6.77;3.90;;;;;;;22.17;48.98;100372.09;3376749;29;20037;-71
2021/07/26 02:11:53;;;;;;;7.17;3.60;;;;;;;22.16;48.83;100375.91;3350156;29;20049;-70
2021/07/26 02:13:35;;;;;;;5.07;3.60;;;;;;;22.15;48.76;100374.28;3371201;29;20072;-70
2021/07/26 02:15:15;;;;;;;3.75;2.92;;;;;;;22.16;48.63;100370.47;3376732;29;20104;-69
2021/07/26 02:16:56;;;;;;;9.00;3.37;;;;;;;22.17;48.58;100374.00;3376772;29;20052;-71
2021/07/26 02:18:38;;;;;;;4.77;3.23;;;;;;;22.17;48.81;100369.41;3376828;29;20572;-71
2021/07/26 02:20:18;;;;;;;7.93;3.40;;;;;;;22.19;48.47;100378.16;3362377;29;20041;-70
2021/07/26 02:21:59;;;;;;;7.83;2.70;;;;;;;22.20;48.60;100381.69;3373747;29;20530;-71
2021/07/26 02:23:40;;;;;;;9.97;4.10;;;;;;;22.18;48.52;100373.78;3376794;29;20516;-70
2021/07/26 02:25:20;;;;;;;6.87;3.30;;;;;;;22.17;48.31;100374.00;3376697;29;20423;-70
2021/07/26 02:27:01;;;;;;;3.97;3.57;;;;;;;22.13;48.20;100376.44;3376725;29;20045;-71
2021/07/26 02:28:42;;;;;;;8.63;2.93;;;;;;;22.10;48.68;100376.94;3376872;29;20488;-71
2021/07/26 02:30:22;;;;;;;6.80;3.03;;;;;;;22.13;48.95;100375.63;3375761;29;20040;-69
2021/07/26 02:32:04;;;;;;;7.93;3.43;;;;;;;22.18;49.01;100368.34;3362575;29;20516;-69
2021/07/26 02:33:44;;;;;;;13.93;5.28;;;;;;;22.20;48.87;100377.09;3373733;29;20040;-71
2021/07/26 02:35:27;;;;;;;7.17;3.80;;;;;;;22.24;48.77;100376.56;3362417;29;20052;-69
2021/07/26 02:37:09;;;;;;;6.95;3.45;;;;;;;22.29;48.92;100373.91;3374288;29;20069;-70
2021/07/26 02:38:49;;;;;;;7.85;3.28;;;;;;;22.30;48.73;100375.53;3376541;29;20520;-69
2021/07/26 02:40:30;;;;;;;5.00;3.47;;;;;;;22.39;48.73;100382.16;3376126;29;20096;-71
2021/07/26 02:42:11;;;;;;;5.73;3.10;;;;;;;22.40;48.71;100381.09;3376174;29;20067;-69
2021/07/26 02:43:51;;;;;;;4.93;2.93;;;;;;;22.46;48.52;100381.94;3362543;29;21285;-72
2021/07/26 02:45:32;;;;;;;6.33;4.10;;;;;;;22.47;48.51;100376.28;3373833;29;20153;-70
2021/07/26 02:47:13;;;;;;;8.77;4.00;;;;;;;22.49;48.49;100387.72;3376398;29;20079;-69
2021/07/26 02:48:53;;;;;;;4.73;3.00;;;;;;;22.52;48.26;100378.22;3376323;29;20108;-69
2021/07/26 02:50:34;;;;;;;6.80;3.07;;;;;;;22.56;47.92;100390.19;3376012;29;20583;-72
2021/07/26 02:52:15;;;;;;;7.47;3.67;;;;;;;22.57;47.72;100392.69;3376031;29;20075;-70
2021/07/26 02:53:56;;;;;;;6.43;3.70;;;;;;;22.54;47.50;100387.75;3375869;29;20080;-69
2021/07/26 02:55:45;;;;;;;5.95;3.30;;;;;;;22.52;47.38;100389.91;3356617;29;20043;-71
2021/07/26 02:57:25;;;;;;;8.17;3.63;;;;;;;22.54;47.48;100392.38;3373108;29;20045;-71
2021/07/26 02:59:06;;;;;;;9.60;4.20;;;;;;;22.54;47.50;100393.19;3376257;29;20072;-71
2021/07/26 03:00:47;;;;;;;7.43;3.70;;;;;;;22.58;47.65;100388.06;3376219;29;20076;-70
2021/07/26 03:02:28;;;;;;;7.10;3.78;;;;;;;22.61;47.53;100393.81;3376280;29;20041;-71
2021/07/26 03:04:10;;;;;;;5.40;3.87;;;;;;;22.64;47.67;100393.28;3376125;29;20068;-72
2021/07/26 03:05:51;;;;;;;8.30;3.20;;;;;;;22.69;47.68;100399.84;3374638;29;20052;-71
2021/07/26 03:07:34;;;;;;;6.40;2.83;;;;;;;22.71;47.39;100389.53;3375754;29;20087;-70
2021/07/26 03:09:15;;;;;;;8.77;3.30;;;;;;;22.74;46.91;100397.16;3376349;29;20064;-72
2021/07/26 03:11:00;;;;;;;12.53;3.43;;;;;;;22.77;46.89;100396.66;3375903;29;20051;-71
2021/07/26 03:12:41;;;;;;;5.43;3.28;;;;;;;22.79;46.96;100397.22;3376024;29;20453;-70
2021/07/26 03:14:21;;;;;;;4.90;2.97;;;;;;;22.82;46.63;100402.13;3376019;29;20120;-70
2021/07/26 03:16:06;;;;;;;6.47;3.27;;;;;;;22.82;46.33;100393.97;3376063;29;20044;-71
2021/07/26 03:17:48;;;;;;;8.25;3.55;;;;;;;22.83;46.31;100390.19;3375638;29;20044;-72
2021/07/26 03:19:29;;;;;;;11.68;3.95;;;;;;;22.85;46.17;100401.63;3376182;29;20072;-72
2021/07/26 03:21:14;;;;;;;;;;;;;;;22.89;46.11;100397.31;3376446;29;20099;-71
2021/07/26 03:23:00;;;;;;;7.00;3.20;;;;;;;22.86;46.06;100403.25;3376112;29;20487;-72
2021/07/26 03:24:41;;;;;;;9.50;3.90;;;;;;;22.84;45.88;100392.63;3376010;29;20149;-70
2021/07/26 03:26:23;;;;;;;4.53;2.72;;;;;;;22.82;45.38;100393.97;3375920;29;20049;-70
2021/07/26 03:28:04;;;;;;;9.60;3.10;;;;;;;22.79;45.26;100397.22;3375651;29;20519;-71
2021/07/26 03:29:44;;;;;;;4.50;2.90;;;;;;;22.77;45.16;100397.50;3376039;29;20045;-71
2021/07/26 03:31:26;;;;;;;5.47;3.40;;;;;;;22.80;45.44;100401.59;3375509;29;20547;-70
2021/07/26 03:33:07;;;;;;;3.93;2.73;;;;;;;22.80;45.66;100396.97;3375923;29;20051;-71
2021/07/26 03:34:47;;;;;;;3.37;2.70;;;;;;;22.86;45.52;100403.25;3375839;29;20200;-73
2021/07/26 03:36:28;;;;;;;5.90;2.93;;;;;;;22.89;45.15;100394.59;3375591;29;20424;-69
2021/07/26 03:38:09;;;;;;;3.47;2.43;;;;;;;22.94;45.17;100397.34;3375872;29;20044;-69
2021/07/26 03:39:49;;;;;;;9.40;2.80;;;;;;;22.96;45.38;100400.63;3375762;29;20089;-72
2021/07/26 03:41:30;;;;;;;4.97;2.50;;;;;;;23.03;45.70;100406.72;3361966;29;20447;-71
2021/07/26 03:43:11;;;;;;;6.63;3.20;;;;;;;23.04;45.42;100397.47;3372897;29;20049;-71
2021/07/26 03:44:55;;;;;;;5.00;2.67;;;;;;;23.04;44.89;100405.63;3375662;29;20047;-71
2021/07/26 03:46:35;;;;;;;4.85;2.63;;;;;;;23.04;44.76;100402.91;3375418;29;20080;-70
2021/07/26 03:48:16;;;;;;;5.07;2.67;;;;;;;23.08;44.64;100398.59;3375797;29;20079;-72
2021/07/26 03:49:57;;;;;;;4.87;2.60;;;;;;;23.11;44.72;100401.88;3375896;29;20044;-69
2021/07/26 03:51:37;;;;;;;5.97;2.47;;;;;;;23.14;44.60;100404.06;3375969;29;20041;-70
2021/07/26 03:53:18;;;;;;;7.40;2.70;;;;;;;23.18;44.50;100402.47;3375425;29;20044;-72
2021/07/26 03:54:59;;;;;;;8.77;2.73;;;;;;;23.21;44.63;100402.78;3375911;29;20048;-71
2021/07/26 03:56:39;;;;;;;8.77;3.03;;;;;;;23.25;44.52;100403.88;3375490;29;20051;-72
2021/07/26 03:58:20;;;;;;;6.63;2.90;;;;;;;23.26;44.63;100407.44;3375582;29;20056;-73
2021/07/26 04:00:01;;;;;;;7.27;3.47;;;;;;;23.26;44.80;100402.81;3375638;29;20433;-73
2021/07/26 04:01:42;;;;;;;10.60;3.20;;;;;;;23.32;44.73;100398.22;3375466;29;20094;-71
2021/07/26 04:03:28;;;;;;;5.97;2.80;;;;;;;23.35;44.77;100397.69;3361307;29;20053;-70
2021/07/26 04:05:22;;;;;;;10.45;3.90;;;;;;;23.39;44.96;100403.41;3373480;29;20539;-73
2021/07/26 04:07:09;;;;;;;15.63;3.97;;;;;;;23.42;45.67;100406.44;3361653;29;20047;-71
2021/07/26 04:08:51;;;;;;;8.20;2.72;;;;;;;23.45;45.13;100403.19;3373525;29;20041;-72
2021/07/26 04:10:34;;;;;;;6.82;2.80;;;;;;;23.46;45.23;100401.28;3375602;29;20059;-70
2021/07/26 04:12:21;;;;;;;9.45;3.50;;;;;;;23.48;45.23;100397.22;3375124;29;20097;-77
2021/07/26 04:14:04;;;;;;;6.45;3.30;;;;;;;23.48;45.32;100399.94;3375576;29;20037;-71
2021/07/26 04:15:49;;;;;;;12.38;3.10;;;;;;;23.49;45.14;100395.31;3375604;29;20504;-72
2021/07/26 04:17:29;;;;;;;6.43;2.55;;;;;;;23.49;45.15;100403.47;3377585;29;20561;-71
2021/07/26 04:19:11;;;;;;;11.87;3.37;;;;;;;23.50;45.53;100400.50;3378357;29;20080;-71
2021/07/26 04:20:52;;;;;;;10.43;3.17;;;;;;;23.54;45.10;100395.34;3378069;29;20048;-71
2021/07/26 04:22:33;;;;;;;9.23;3.47;;;;;;;23.57;45.13;100399.44;3377734;29;20378;-74
2021/07/26 04:24:14;;;;;;;7.40;3.28;;;;;;;23.62;45.28;100396.75;3377954;29;20507;-70
2021/07/26 04:25:54;;;;;;;6.53;2.67;;;;;;;23.66;45.73;100393.25;3378300;29;20046;-72
2021/07/26 04:27:54;;;;;;;10.55;3.35;;;;;;;23.72;45.38;100394.13;3364076;29;20508;-71
2021/07/26 04:29:49;;;;;;;8.40;2.67;;;;;;;23.76;45.36;100394.44;3378292;29;20181;-71
2021/07/26 04:31:30;;;;;;;8.33;2.97;;;;;;;23.78;45.33;100398.53;3378047;29;20116;-72
2021/07/26 04:33:11;;;;;;;6.57;2.90;;;;;;;23.81;45.72;100395.25;3377878;29;20151;-71
2021/07/26 04:34:52;;;;;;;8.70;4.40;;;;;;;23.84;45.46;100400.19;3377974;29;20417;-71
2021/07/26 04:36:32;;;;;;;7.50;3.10;;;;;;;23.88;45.31;100401.28;3378010;29;20108;-71
2021/07/26 04:38:13;;;;;;;6.43;3.20;;;;;;;23.91;45.10;100392.59;3377984;29;20099;-71
2021/07/26 04:39:54;;;;;;;8.80;3.50;;;;;;;23.96;45.30;100402.69;3377868;29;20041;-72
2021/07/26 04:41:34;;;;;;;7.27;2.80;;;;;;;24.00;45.49;100392.88;3378026;29;20048;-73
2021/07/26 04:43:15;;;;;;;10.37;2.87;;;;;;;24.05;45.31;100389.38;3377513;29;20076;-73
2021/07/26 04:44:56;;;;;;;5.93;3.20;;;;;;;24.06;45.21;100388.28;3378022;29;20045;-71
2021/07/26 04:46:37;;;;;;;9.37;3.27;;;;;;;24.10;45.57;100392.13;3378100;29;20100;-70
2021/07/26 04:48:17;;;;;;;7.23;3.00;;;;;;;24.17;46.32;100392.69;3377816;29;20048;-69
2021/07/26 04:49:58;;;;;;;10.73;4.00;;;;;;;24.23;46.31;100391.59;3377862;29;20148;-71
2021/07/26 04:51:39;;;;;;;12.60;3.73;;;;;;;24.29;48.33;100384.25;3377841;29;20048;-70
2021/07/26 04:53:20;;;;;;;17.60;3.70;;;;;;;24.35;47.72;100389.47;3363583;29;20085;-70
2021/07/26 04:55:00;;;;;;;9.27;3.40;;;;;;;24.37;47.28;100387.28;3375104;29;20041;-71
2021/07/26 04:57:00;;;;;;;7.72;3.65;;;;;;;24.44;47.67;100388.94;3377912;29;20111;-70
2021/07/26 04:58:40;;;;;;;5.63;3.17;;;;;;;24.49;48.25;100389.78;3377950;29;20045;-70
2021/07/26 05:00:22;;;;;;;8.37;3.37;;;;;;;24.56;47.88;100384.09;3377558;29;20531;-70
2021/07/26 05:02:03;;;;;;;11.13;3.30;;;;;;;24.61;47.93;100386.00;3377428;29;20131;-71
2021/07/26 05:03:44;;;;;;;5.72;2.90;;;;;;;24.69;47.98;100380.81;3363606;29;20547;-71
2021/07/26 05:05:25;;;;;;;7.57;3.50;;;;;;;24.76;47.38;100386.84;3374548;29;20068;-71
2021/07/26 05:07:05;;;;;;;11.80;3.30;;;;;;;24.81;47.50;100381.38;3377854;29;20104;-70
2021/07/26 05:08:46;;;;;;;8.97;4.53;;;;;;;24.85;46.83;100381.66;3377458;29;20040;-72
2021/07/26 05:10:27;;;;;;;8.13;3.63;;;;;;;24.88;47.05;100381.09;3377470;29;20049;-70
2021/07/26 05:12:12;;;;;;;5.50;3.07;;;;;;;24.94;47.15;100373.75;3377212;29;20048;-71
2021/07/26 05:13:53;;;;;;;9.18;2.95;;;;;;;25.01;47.14;100382.47;3377388;29;20504;-70
2021/07/26 05:15:34;;;;;;;;;;;;;;;25.09;46.56;100384.63;3378022;29;20051;-69
2021/07/26 05:17:26;;;;;;;9.98;3.30;;;;;;;25.11;46.37;100385.19;3377365;29;20415;-71
2021/07/26 05:19:07;;;;;;;18.35;4.20;;;;;;;25.14;46.52;100378.34;3377324;29;20040;-71
2021/07/26 05:20:48;;;;;;;5.88;2.58;;;;;;;25.21;46.22;100377.03;3377163;29;20412;-72
2021/07/26 05:22:28;;;;;;;7.77;2.50;;;;;;;25.23;45.42;100372.09;3376819;29;20416;-71
2021/07/26 05:24:09;;;;;;;6.83;2.80;;;;;;;25.31;45.54;100378.09;3363343;29;20085;-72
2021/07/26 05:25:50;;;;;;;6.90;3.33;;;;;;;25.38;44.83;100376.72;3374514;29;20059;-70
2021/07/26 05:27:31;;;;;;;6.50;2.80;;;;;;;25.42;44.40;100377.78;3377272;29;20048;-72
2021/07/26 05:29:11;;;;;;;7.77;2.50;;;;;;;25.42;44.63;100371.53;3376171;29;20072;-72
2021/07/26 05:30:52;;;;;;;10.00;2.87;;;;;;;25.48;44.49;100378.63;3377092;29;20123;-72
2021/07/26 05:32:33;;;;;;;7.33;3.10;;;;;;;25.50;43.61;100379.13;3376557;29;20535;-73
2021/07/26 05:34:13;;;;;;;22.20;3.20;;;;;;;25.53;43.70;100380.50;3377102;29;20448;-72
2021/07/26 05:35:54;;;;;;;11.70;2.90;;;;;;;25.58;43.63;100375.88;3363102;29;20045;-71
2021/07/26 05:37:35;;;;;;;5.90;3.45;;;;;;;25.65;43.68;100376.38;3361019;29;20052;-74
2021/07/26 05:39:17;;;;;;;6.30;3.00;;;;;;;25.71;43.92;100371.69;3374381;29;20137;-74
2021/07/26 05:40:58;;;;;;;6.03;3.55;;;;;;;25.77;43.41;100370.59;3377315;29;20044;-73
2021/07/26 05:42:39;;;;;;;7.10;3.25;;;;;;;25.84;42.88;100379.34;3363163;29;20543;-73
2021/07/26 05:44:20;;;;;;;6.77;3.37;;;;;;;25.90;42.78;100374.69;3374279;29;20048;-72
2021/07/26 05:46:01;;;;;;;10.18;3.28;;;;;;;25.96;42.60;100372.75;3377283;29;20057;-72
2021/07/26 05:47:42;;;;;;;5.77;3.13;;;;;;;26.01;42.23;100375.44;3363084;29;20045;-72
2021/07/26 05:49:23;;;;;;;14.23;4.00;;;;;;;26.02;42.09;100380.66;3374206;29;20442;-72
2021/07/26 05:51:04;;;;;;;5.07;2.80;;;;;;;26.02;41.85;100382.53;3363438;29;20052;-71
2021/07/26 05:52:48;;;;;;;7.72;3.22;;;;;;;26.01;41.13;100378.19;3350101;29;20432;-72
2021/07/26 05:54:29;;;;;;;6.55;3.28;;;;;;;26.04;41.35;100372.16;3372645;29;20051;-72
2021/07/26 05:56:12;;;;;;;8.50;2.93;;;;;;;26.07;41.51;100366.13;3376952;29;20044;-72
2021/07/26 05:57:52;;;;;;;4.28;3.05;;;;;;;26.10;41.35;100376.50;3376860;29;20051;-73
2021/07/26 05:59:33;;;;;;;8.47;3.30;;;;;;;26.13;40.99;100378.69;3376998;29;20512;-73
2021/07/26 06:03:01;;;;;;;7.82;2.70;;;;;;;26.20;40.81;100372.88;3376919;29;20100;-72
2021/07/26 06:04:41;;;;;;;7.00;3.00;;;;;;;26.26;41.18;100369.03;3376099;29;20048;-72
2021/07/26 06:06:22;;;;;;;11.40;3.47;;;;;;;26.29;40.74;100365.72;3376640;29;20044;-72
2021/07/26 06:08:03;;;;;;;8.13;2.90;;;;;;;26.33;40.08;100366.78;3376766;29;20503;-73
2021/07/26 06:09:46;;;;;;;6.30;2.38;;;;;;;26.36;40.33;100366.25;3376684;29;20104;-72
2021/07/26 06:11:27;;;;;;;8.65;2.80;;;;;;;26.39;40.21;100362.13;3376061;29;20068;-72
2021/07/26 06:13:07;;;;;;;7.97;2.27;;;;;;;26.43;39.77;100365.91;3376694;29;20044;-75
2021/07/26 06:14:48;;;;;;;3.73;2.43;;;;;;;26.45;39.82;100363.72;3376301;29;20043;-72
2021/07/26 06:16:29;;;;;;;4.67;2.40;;;;;;;26.47;39.78;100356.06;3365833;29;20520;-75
2021/07/26 06:18:09;;;;;;;4.43;2.37;;;;;;;26.55;39.46;100358.22;3355450;29;20044;-72
2021/07/26 06:19:50;;;;;;;2.57;1.97;;;;;;;26.62;39.75;100360.63;3373957;29;20092;-73
2021/07/26 06:21:31;;;;;;;18.57;3.83;;;;;;;26.69;39.28;100358.38;3369190;29;20457;-73
2021/07/26 06:23:12;;;;;;;12.73;2.43;;;;;;;26.79;39.06;100368.41;3373801;29;20051;-74
2021/07/26 06:24:52;;;;;;;3.67;1.73;;;;;;;26.88;39.15;100364.78;3376316;29;20047;-75
2021/07/26 06:26:33;;;;;;;2.10;1.87;;;;;;;26.97;39.06;100360.31;3376528;29;20043;-71
2021/07/26 06:28:14;;;;;;;4.10;2.13;;;;;;;27.07;38.55;100353.13;3376431;29;20041;-74
2021/07/26 06:29:54;;;;;;;1.70;1.43;;;;;;;27.14;38.25;100362.63;3375126;29;20051;-72
2021/07/26 06:31:35;;;;;;;2.53;1.97;;;;;;;27.21;38.13;100362.34;3362384;29;20056;-71
2021/07/26 06:33:16;;;;;;;5.05;2.25;;;;;;;27.32;37.80;100358.38;3373419;29;20508;-75
2021/07/26 06:34:57;;;;;;;5.63;2.23;;;;;;;27.41;38.28;100359.34;3377039;29;20136;-75
2021/07/26 06:36:41;;;;;;;3.88;2.00;;;;;;;27.52;37.71;100362.81;3376969;29;20055;-73
2021/07/26 06:38:22;;;;;;;3.03;1.75;;;;;;;27.61;37.08;100365.72;3376730;29;20140;-73
2021/07/26 06:40:07;;;;;;;5.87;2.87;;;;;;;27.70;37.31;100360.41;3360762;29;20056;-74
2021/07/26 06:41:48;;;;;;;2.92;1.80;;;;;;;27.81;36.68;100362.78;3373184;29;20064;-75
2021/07/26 06:43:29;;;;;;;3.83;1.87;;;;;;;27.93;36.87;100358.78;3361649;29;20056;-73
2021/07/26 06:45:11;;;;;;;2.20;1.70;;;;;;;28.05;36.71;100356.44;3373357;29;20048;-74
2021/07/26 06:46:52;;;;;;;5.20;1.75;;;;;;;28.14;36.37;100354.69;3362318;29;20060;-75
2021/07/26 06:48:34;;;;;;;4.60;1.67;;;;;;;28.28;36.52;100357.47;3358025;29;21904;-72
2021/07/26 06:50:16;;;;;;;4.45;1.65;;;;;;;28.40;36.18;100360.59;3369479;29;20040;-71
2021/07/26 06:51:56;;;;;;;3.53;1.70;;;;;;;28.51;36.02;100358.53;3353823;29;20041;-74
2021/07/26 06:53:37;;;;;;;3.93;1.97;;;;;;;28.58;35.87;100360.88;3369165;29;20037;-74
2021/07/26 06:55:19;;;;;;;5.23;2.30;;;;;;;28.58;35.99;100369.97;3369356;29;20513;-73
2021/07/26 06:56:59;;;;;;;;;;;;;;;28.69;35.93;100365.13;3368941;29;20048;-75
2021/07/26 06:58:46;;;;;;;5.70;2.38;;;;;;;28.69;35.96;100368.66;3362580;29;19923;-72
2021/07/26 07:00:27;;;;;;;6.60;2.28;;;;;;;28.81;36.09;100362.72;3362778;29;20108;-73
2021/07/26 07:02:10;;;;;;;3.78;1.48;;;;;;;28.92;35.46;100363.38;3374578;29;20044;-74
2021/07/26 07:03:52;;;;;;;1.73;1.63;;;;;;;28.98;35.15;100367.63;3352502;29;20041;-72
2021/07/26 07:05:33;;;;;;;1.83;1.50;;;;;;;28.97;35.13;100367.97;3369297;29;20442;-75
2021/07/26 07:07:13;;;;;;;2.60;1.70;;;;;;;28.98;35.09;100370.38;3372871;29;20079;-73
2021/07/26 07:08:54;;;;;;;2.13;1.60;;;;;;;28.98;35.01;100364.91;3369832;29;20304;-72
2021/07/26 07:10:35;;;;;;;3.72;2.13;;;;;;;29.06;34.48;100366.97;3366040;29;20584;-74
2021/07/26 07:12:21;;;;;;;4.25;1.83;;;;;;;29.10;34.36;100358.97;3362374;29;20044;-74
2021/07/26 07:14:02;;;;;;;4.38;1.52;;;;;;;29.20;34.24;100364.28;3358973;29;20128;-73
2021/07/26 07:15:42;;;;;;;4.03;2.03;;;;;;;29.26;34.42;100362.25;3363518;29;20608;-72
2021/07/26 07:17:23;;;;;;;3.50;2.10;;;;;;;29.24;34.47;100365.28;3362220;29;20048;-74
2021/07/26 07:19:05;;;;;;;4.90;2.28;;;;;;;29.21;33.95;100360.41;3362107;29;20508;-73
2021/07/26 07:20:47;;;;;;;5.67;1.80;;;;;;;29.28;33.63;100371.00;3373090;29;20048;-75
2021/07/26 07:22:27;;;;;;;4.93;2.00;;;;;;;29.29;33.63;100372.63;3360615;29;20052;-73
2021/07/26 07:24:08;;;;;;;4.57;1.87;;;;;;;29.33;33.46;100373.66;3371528;29;20076;-71
2021/07/26 07:25:49;;;;;;;3.00;2.03;;;;;;;29.35;33.41;100371.38;3374233;29;20131;-72
2021/07/26 07:27:30;;;;;;;3.20;1.70;;;;;;;29.41;33.85;100370.19;3374560;29;20444;-73
2021/07/26 07:29:12;;;;;;;4.47;2.25;;;;;;;29.46;33.40;100375.59;3370426;29;20665;-72
2021/07/26 07:30:52;;;;;;;3.78;1.60;;;;;;;29.48;33.51;100375.28;3373907;29;20049;-75
2021/07/26 07:32:36;;;;;;;4.87;1.80;;;;;;;29.51;33.56;100370.00;3374189;29;20056;-73
2021/07/26 07:34:17;;;;;;;8.05;2.00;;;;;;;29.57;33.66;100368.75;3374308;29;20056;-74
2021/07/26 07:36:05;;;;;;;7.82;2.50;;;;;;;29.70;34.07;100374.59;3374225;29;20271;-74
2021/07/26 07:37:45;;;;;;;9.93;2.22;;;;;;;29.72;34.40;100369.63;3374348;29;20520;-72
2021/07/26 07:39:28;;;;;;;9.20;2.43;;;;;;;29.73;34.42;100371.25;3374311;29;20114;-73
2021/07/26 07:41:11;;;;;;;13.85;2.10;;;;;;;29.77;34.79;100377.75;3374083;29;20143;-73
2021/07/26 07:42:53;;;;;;;15.32;3.00;;;;;;;29.85;35.27;100378.97;3373707;29;20049;-75
2021/07/26 07:44:34;;;;;;;6.85;2.70;;;;;;;29.95;34.81;100381.50;3360096;29;20037;-73
2021/07/26 07:46:19;;;;;;;11.18;3.03;;;;;;;30.03;35.05;100379.97;3365915;29;20045;-74
2021/07/26 07:48:01;;;;;;;11.55;3.22;;;;;;;30.13;34.94;100379.75;3348434;29;20052;-72
2021/07/26 07:49:43;;;;;;;10.27;3.70;;;;;;;30.23;35.59;100368.53;3363906;29;20041;-72
2021/07/26 07:51:25;;;;;;;11.03;2.40;;;;;;;30.36;34.70;100372.38;3369244;29;20568;-75
2021/07/26 07:53:06;;;;;;;11.40;2.80;;;;;;;30.52;34.40;100370.09;3370760;29;20304;-75
2021/07/26 07:54:47;;;;;;;6.77;2.97;;;;;;;30.65;33.59;100374.72;3361869;29;20041;-73
2021/07/26 07:56:28;;;;;;;5.97;2.47;;;;;;;30.77;33.89;100376.91;3374124;29;20040;-75
2021/07/26 07:58:09;;;;;;;11.37;3.60;;;;;;;30.92;34.00;100367.47;3377096;29;20080;-75